sensor_id;sensor_type;location;lat;lon;timestamp;P1;durP1;ratioP1;P2;durP2;ratioP2
21848;SDS011;11089;49.852;19.700;2023-04-10T00:02:54;71.05;;;32.58;;
21848;SDS011;11089;49.852;19.700;2023-04-10T00:05:55;73.22;;;33.97;;
21848;SDS011;11089;49.852;19.700;2023-04-10T00:08:56;68.05;;;33.92;;
21848;SDS011;11089;49.852;19.700;2023-04-10T00:11:58;70.68;;;33.33;;
21848;SDS011;11089;49.852;19.700;2023-04-10T00:14:59;66.57;;;31.65;;
21848;SDS011;11089;49.852;19.700;2023-04-10T00:17:59;67.30;;;31.70;;
21848;SDS011;11089;49.852;19.700;2023-04-10T00:21:01;70.18;;;33.28;;
21848;SDS011;11089;49.852;19.700;2023-04-10T00:24:02;70.78;;;34.33;;
21848;SDS011;11089;49.852;19.700;2023-04-10T00:27:04;65.80;;;32.33;;
21848;SDS011;11089;49.852;19.700;2023-04-10T00:30:05;61.88;;;32.63;;
21848;SDS011;11089;49.852;19.700;2023-04-10T00:33:07;67.03;;;31.13;;
21848;SDS011;11089;49.852;19.700;2023-04-10T00:36:07;60.00;;;29.80;;
21848;SDS011;11089;49.852;19.700;2023-04-10T00:39:08;61.80;;;30.95;;
21848;SDS011;11089;49.852;19.700;2023-04-10T00:42:09;62.63;;;30.17;;
21848;SDS011;11089;49.852;19.700;2023-04-10T00:45:10;60.90;;;31.13;;
21848;SDS011;11089;49.852;19.700;2023-04-10T00:48:11;66.35;;;32.17;;
21848;SDS011;11089;49.852;19.700;2023-04-10T00:51:12;66.82;;;32.17;;
21848;SDS011;11089;49.852;19.700;2023-04-10T00:54:13;67.72;;;33.03;;
21848;SDS011;11089;49.852;19.700;2023-04-10T00:57:15;65.13;;;31.35;;
21848;SDS011;11089;49.852;19.700;2023-04-10T01:00:17;65.32;;;31.08;;
21848;SDS011;11089;49.852;19.700;2023-04-10T01:03:18;66.75;;;33.08;;
21848;SDS011;11089;49.852;19.700;2023-04-10T01:16:24;68.35;;;32.80;;
21848;SDS011;11089;49.852;19.700;2023-04-10T01:22:40;72.53;;;34.38;;
21848;SDS011;11089;49.852;19.700;2023-04-10T01:26:09;72.40;;;35.20;;
21848;SDS011;11089;49.852;19.700;2023-04-10T01:29:12;69.15;;;34.15;;
21848;SDS011;11089;49.852;19.700;2023-04-10T01:32:20;66.25;;;33.08;;
21848;SDS011;11089;49.852;19.700;2023-04-10T01:35:22;75.85;;;34.70;;
21848;SDS011;11089;49.852;19.700;2023-04-10T01:38:25;71.85;;;34.40;;
21848;SDS011;11089;49.852;19.700;2023-04-10T01:41:29;68.68;;;34.65;;
21848;SDS011;11089;49.852;19.700;2023-04-10T01:44:32;70.90;;;33.38;;
21848;SDS011;11089;49.852;19.700;2023-04-10T01:47:35;67.45;;;33.38;;
21848;SDS011;11089;49.852;19.700;2023-04-10T01:50:37;70.50;;;33.00;;
21848;SDS011;11089;49.852;19.700;2023-04-10T01:53:39;69.95;;;33.38;;
21848;SDS011;11089;49.852;19.700;2023-04-10T01:56:42;75.85;;;34.97;;
21848;SDS011;11089;49.852;19.700;2023-04-10T01:59:43;72.75;;;34.50;;
21848;SDS011;11089;49.852;19.700;2023-04-10T02:02:44;69.18;;;33.80;;
21848;SDS011;11089;49.852;19.700;2023-04-10T02:09:05;70.53;;;35.60;;
21848;SDS011;11089;49.852;19.700;2023-04-10T02:12:15;75.85;;;36.38;;
21848;SDS011;11089;49.852;19.700;2023-04-10T02:15:20;75.32;;;35.30;;
21848;SDS011;11089;49.852;19.700;2023-04-10T02:18:23;75.60;;;36.78;;
21848;SDS011;11089;49.852;19.700;2023-04-10T02:21:25;75.25;;;37.33;;
21848;SDS011;11089;49.852;19.700;2023-04-10T02:24:28;77.18;;;35.35;;
21848;SDS011;11089;49.852;19.700;2023-04-10T02:27:29;76.05;;;35.53;;
21848;SDS011;11089;49.852;19.700;2023-04-10T02:30:31;75.65;;;35.55;;
21848;SDS011;11089;49.852;19.700;2023-04-10T02:33:33;73.72;;;34.55;;
21848;SDS011;11089;49.852;19.700;2023-04-10T02:36:35;75.10;;;36.38;;
21848;SDS011;11089;49.852;19.700;2023-04-10T02:39:37;72.47;;;34.75;;
21848;SDS011;11089;49.852;19.700;2023-04-10T02:42:38;69.97;;;34.00;;
21848;SDS011;11089;49.852;19.700;2023-04-10T02:45:38;70.15;;;33.42;;
21848;SDS011;11089;49.852;19.700;2023-04-10T02:48:40;74.03;;;34.85;;
21848;SDS011;11089;49.852;19.700;2023-04-10T02:51:41;71.60;;;33.17;;
21848;SDS011;11089;49.852;19.700;2023-04-10T02:54:42;73.35;;;33.58;;
21848;SDS011;11089;49.852;19.700;2023-04-10T02:57:43;69.75;;;32.50;;
21848;SDS011;11089;49.852;19.700;2023-04-10T03:00:48;70.90;;;31.75;;
21848;SDS011;11089;49.852;19.700;2023-04-10T03:03:49;79.82;;;34.33;;
21848;SDS011;11089;49.852;19.700;2023-04-10T03:06:50;75.97;;;35.72;;
21848;SDS011;11089;49.852;19.700;2023-04-10T03:09:52;81.95;;;37.10;;
21848;SDS011;11089;49.852;19.700;2023-04-10T03:12:53;80.22;;;36.42;;
21848;SDS011;11089;49.852;19.700;2023-04-10T03:15:53;82.55;;;35.65;;
21848;SDS011;11089;49.852;19.700;2023-04-10T03:18:55;98.38;;;38.95;;
21848;SDS011;11089;49.852;19.700;2023-04-10T03:21:55;90.43;;;39.13;;
21848;SDS011;11089;49.852;19.700;2023-04-10T03:24:56;89.70;;;37.92;;
21848;SDS011;11089;49.852;19.700;2023-04-10T03:27:57;90.28;;;37.08;;
21848;SDS011;11089;49.852;19.700;2023-04-10T03:30:58;93.30;;;36.45;;
21848;SDS011;11089;49.852;19.700;2023-04-10T03:34:01;87.95;;;36.05;;
21848;SDS011;11089;49.852;19.700;2023-04-10T03:37:02;91.75;;;38.13;;
21848;SDS011;11089;49.852;19.700;2023-04-10T03:40:06;102.30;;;38.80;;
21848;SDS011;11089;49.852;19.700;2023-04-10T03:43:08;99.03;;;40.13;;
21848;SDS011;11089;49.852;19.700;2023-04-10T03:46:09;95.72;;;38.47;;
21848;SDS011;11089;49.852;19.700;2023-04-10T03:49:10;101.75;;;39.40;;
21848;SDS011;11089;49.852;19.700;2023-04-10T03:52:11;100.05;;;36.95;;
21848;SDS011;11089;49.852;19.700;2023-04-10T03:55:11;105.28;;;39.00;;
21848;SDS011;11089;49.852;19.700;2023-04-10T03:58:13;106.00;;;38.35;;
21848;SDS011;11089;49.852;19.700;2023-04-10T04:01:14;110.97;;;38.40;;
21848;SDS011;11089;49.852;19.700;2023-04-10T04:04:15;89.65;;;35.45;;
21848;SDS011;11089;49.852;19.700;2023-04-10T04:07:16;91.20;;;38.05;;
21848;SDS011;11089;49.852;19.700;2023-04-10T04:10:17;88.63;;;36.60;;
21848;SDS011;11089;49.852;19.700;2023-04-10T04:13:18;93.30;;;37.85;;
21848;SDS011;11089;49.852;19.700;2023-04-10T04:16:19;93.05;;;36.15;;
21848;SDS011;11089;49.852;19.700;2023-04-10T04:19:20;99.25;;;36.83;;
21848;SDS011;11089;49.852;19.700;2023-04-10T04:22:21;98.57;;;36.03;;
21848;SDS011;11089;49.852;19.700;2023-04-10T04:25:22;92.97;;;37.10;;
21848;SDS011;11089;49.852;19.700;2023-04-10T04:28:23;107.13;;;37.65;;
21848;SDS011;11089;49.852;19.700;2023-04-10T04:31:24;103.70;;;36.45;;
21848;SDS011;11089;49.852;19.700;2023-04-10T04:34:31;101.40;;;37.92;;
21848;SDS011;11089;49.852;19.700;2023-04-10T04:37:32;111.60;;;40.85;;
21848;SDS011;11089;49.852;19.700;2023-04-10T04:40:33;111.93;;;38.72;;
21848;SDS011;11089;49.852;19.700;2023-04-10T04:43:34;114.55;;;39.50;;
21848;SDS011;11089;49.852;19.700;2023-04-10T04:46:35;108.47;;;36.15;;
21848;SDS011;11089;49.852;19.700;2023-04-10T04:49:36;113.07;;;38.42;;
21848;SDS011;11089;49.852;19.700;2023-04-10T04:52:36;114.93;;;39.05;;
21848;SDS011;11089;49.852;19.700;2023-04-10T04:55:38;113.47;;;39.53;;
21848;SDS011;11089;49.852;19.700;2023-04-10T04:58:38;112.20;;;38.92;;
21848;SDS011;11089;49.852;19.700;2023-04-10T05:01:39;109.43;;;37.63;;
21848;SDS011;11089;49.852;19.700;2023-04-10T05:04:40;114.13;;;35.97;;
21848;SDS011;11089;49.852;19.700;2023-04-10T05:07:41;113.68;;;36.45;;
21848;SDS011;11089;49.852;19.700;2023-04-10T05:10:42;110.13;;;34.03;;
21848;SDS011;11089;49.852;19.700;2023-04-10T05:13:43;112.95;;;33.25;;
21848;SDS011;11089;49.852;19.700;2023-04-10T05:16:44;108.13;;;36.30;;
21848;SDS011;11089;49.852;19.700;2023-04-10T05:19:45;116.00;;;35.33;;
21848;SDS011;11089;49.852;19.700;2023-04-10T05:22:46;114.00;;;34.05;;
21848;SDS011;11089;49.852;19.700;2023-04-10T05:25:47;109.90;;;33.55;;
21848;SDS011;11089;49.852;19.700;2023-04-10T05:28:48;128.40;;;36.28;;
21848;SDS011;11089;49.852;19.700;2023-04-10T05:31:49;127.32;;;35.85;;
21848;SDS011;11089;49.852;19.700;2023-04-10T05:34:50;119.88;;;34.08;;
21848;SDS011;11089;49.852;19.700;2023-04-10T05:37:51;121.55;;;34.35;;
21848;SDS011;11089;49.852;19.700;2023-04-10T05:40:52;116.00;;;34.65;;
21848;SDS011;11089;49.852;19.700;2023-04-10T05:43:54;107.22;;;33.95;;
21848;SDS011;11089;49.852;19.700;2023-04-10T05:46:55;119.28;;;35.40;;
21848;SDS011;11089;49.852;19.700;2023-04-10T05:49:56;100.80;;;32.08;;
21848;SDS011;11089;49.852;19.700;2023-04-10T05:52:57;111.63;;;35.30;;
21848;SDS011;11089;49.852;19.700;2023-04-10T05:55:58;107.10;;;32.70;;
21848;SDS011;11089;49.852;19.700;2023-04-10T05:58:59;108.40;;;30.42;;
21848;SDS011;11089;49.852;19.700;2023-04-10T06:02:00;105.80;;;31.75;;
21848;SDS011;11089;49.852;19.700;2023-04-10T06:05:01;107.13;;;30.05;;
21848;SDS011;11089;49.852;19.700;2023-04-10T06:08:02;101.30;;;32.13;;
21848;SDS011;11089;49.852;19.700;2023-04-10T06:11:03;113.28;;;33.60;;
21848;SDS011;11089;49.852;19.700;2023-04-10T06:14:04;97.90;;;30.00;;
21848;SDS011;11089;49.852;19.700;2023-04-10T06:17:05;94.28;;;28.80;;
21848;SDS011;11089;49.852;19.700;2023-04-10T06:20:06;83.93;;;26.58;;
21848;SDS011;11089;49.852;19.700;2023-04-10T06:23:08;83.45;;;27.60;;
21848;SDS011;11089;49.852;19.700;2023-04-10T06:26:09;72.25;;;25.77;;
21848;SDS011;11089;49.852;19.700;2023-04-10T06:29:10;70.72;;;25.25;;
21848;SDS011;11089;49.852;19.700;2023-04-10T06:32:11;78.38;;;26.30;;
21848;SDS011;11089;49.852;19.700;2023-04-10T06:35:12;90.45;;;27.75;;
21848;SDS011;11089;49.852;19.700;2023-04-10T06:38:13;88.55;;;30.15;;
21848;SDS011;11089;49.852;19.700;2023-04-10T06:41:14;86.63;;;29.27;;
21848;SDS011;11089;49.852;19.700;2023-04-10T06:44:15;89.95;;;29.33;;
21848;SDS011;11089;49.852;19.700;2023-04-10T06:47:16;93.75;;;29.00;;
21848;SDS011;11089;49.852;19.700;2023-04-10T06:50:17;100.15;;;33.78;;
21848;SDS011;11089;49.852;19.700;2023-04-10T06:53:18;106.43;;;31.92;;
21848;SDS011;11089;49.852;19.700;2023-04-10T06:56:19;87.53;;;29.05;;
21848;SDS011;11089;49.852;19.700;2023-04-10T06:59:20;86.72;;;27.23;;
21848;SDS011;11089;49.852;19.700;2023-04-10T07:02:21;92.15;;;31.05;;
21848;SDS011;11089;49.852;19.700;2023-04-10T07:05:22;87.13;;;27.70;;
21848;SDS011;11089;49.852;19.700;2023-04-10T07:08:23;93.32;;;29.20;;
21848;SDS011;11089;49.852;19.700;2023-04-10T07:11:24;96.63;;;28.60;;
21848;SDS011;11089;49.852;19.700;2023-04-10T07:14:25;97.97;;;30.50;;
21848;SDS011;11089;49.852;19.700;2023-04-10T07:17:26;101.95;;;31.13;;
21848;SDS011;11089;49.852;19.700;2023-04-10T07:20:27;95.45;;;30.35;;
21848;SDS011;11089;49.852;19.700;2023-04-10T07:23:28;103.07;;;31.10;;
21848;SDS011;11089;49.852;19.700;2023-04-10T07:26:29;92.88;;;29.50;;
21848;SDS011;11089;49.852;19.700;2023-04-10T07:29:30;104.65;;;30.55;;
21848;SDS011;11089;49.852;19.700;2023-04-10T07:32:31;93.15;;;29.10;;
21848;SDS011;11089;49.852;19.700;2023-04-10T07:35:33;93.25;;;30.30;;
21848;SDS011;11089;49.852;19.700;2023-04-10T07:38:35;98.30;;;32.65;;
21848;SDS011;11089;49.852;19.700;2023-04-10T07:41:37;92.70;;;29.80;;
21848;SDS011;11089;49.852;19.700;2023-04-10T07:44:39;83.70;;;28.90;;
21848;SDS011;11089;49.852;19.700;2023-04-10T07:47:40;89.95;;;29.45;;
21848;SDS011;11089;49.852;19.700;2023-04-10T07:50:41;86.85;;;29.08;;
21848;SDS011;11089;49.852;19.700;2023-04-10T07:53:42;83.20;;;29.98;;
21848;SDS011;11089;49.852;19.700;2023-04-10T07:56:43;81.07;;;28.05;;
21848;SDS011;11089;49.852;19.700;2023-04-10T07:59:44;77.88;;;27.67;;
21848;SDS011;11089;49.852;19.700;2023-04-10T08:02:45;73.95;;;26.10;;
21848;SDS011;11089;49.852;19.700;2023-04-10T08:05:46;80.68;;;27.92;;
21848;SDS011;11089;49.852;19.700;2023-04-10T08:08:46;78.72;;;28.85;;
21848;SDS011;11089;49.852;19.700;2023-04-10T08:11:47;76.38;;;30.13;;
21848;SDS011;11089;49.852;19.700;2023-04-10T08:14:48;80.22;;;28.65;;
21848;SDS011;11089;49.852;19.700;2023-04-10T08:17:50;74.97;;;27.85;;
21848;SDS011;11089;49.852;19.700;2023-04-10T08:20:52;78.47;;;29.73;;
21848;SDS011;11089;49.852;19.700;2023-04-10T08:23:54;75.72;;;28.60;;
21848;SDS011;11089;49.852;19.700;2023-04-10T08:26:56;74.10;;;27.73;;
21848;SDS011;11089;49.852;19.700;2023-04-10T08:29:57;77.30;;;28.48;;
21848;SDS011;11089;49.852;19.700;2023-04-10T08:32:58;72.05;;;27.58;;
21848;SDS011;11089;49.852;19.700;2023-04-10T08:35:59;70.82;;;28.15;;
21848;SDS011;11089;49.852;19.700;2023-04-10T08:38:59;78.68;;;28.63;;
21848;SDS011;11089;49.852;19.700;2023-04-10T08:42:01;84.55;;;31.52;;
21848;SDS011;11089;49.852;19.700;2023-04-10T08:45:02;75.10;;;28.85;;
21848;SDS011;11089;49.852;19.700;2023-04-10T08:48:04;79.75;;;29.38;;
21848;SDS011;11089;49.852;19.700;2023-04-10T08:51:08;70.43;;;27.65;;
21848;SDS011;11089;49.852;19.700;2023-04-10T08:54:17;69.30;;;26.33;;
21848;SDS011;11089;49.852;19.700;2023-04-10T08:57:20;83.32;;;28.92;;
21848;SDS011;11089;49.852;19.700;2023-04-10T09:00:21;89.00;;;29.65;;
21848;SDS011;11089;49.852;19.700;2023-04-10T09:03:22;76.72;;;27.65;;
21848;SDS011;11089;49.852;19.700;2023-04-10T09:06:24;73.18;;;26.60;;
21848;SDS011;11089;49.852;19.700;2023-04-10T09:09:25;77.15;;;25.98;;
21848;SDS011;11089;49.852;19.700;2023-04-10T09:12:27;81.85;;;28.27;;
21848;SDS011;11089;49.852;19.700;2023-04-10T09:15:28;84.13;;;27.75;;
21848;SDS011;11089;49.852;19.700;2023-04-10T09:18:39;80.10;;;26.85;;
21848;SDS011;11089;49.852;19.700;2023-04-10T09:21:44;79.35;;;28.65;;
21848;SDS011;11089;49.852;19.700;2023-04-10T09:24:49;95.07;;;31.55;;
21848;SDS011;11089;49.852;19.700;2023-04-10T09:27:51;85.40;;;28.77;;
21848;SDS011;11089;49.852;19.700;2023-04-10T09:31:03;92.93;;;31.88;;
21848;SDS011;11089;49.852;19.700;2023-04-10T09:34:37;88.57;;;30.02;;
21848;SDS011;11089;49.852;19.700;2023-04-10T09:37:53;94.43;;;34.92;;
21848;SDS011;11089;49.852;19.700;2023-04-10T09:40:54;108.63;;;38.65;;
21848;SDS011;11089;49.852;19.700;2023-04-10T09:44:10;114.10;;;39.35;;
21848;SDS011;11089;49.852;19.700;2023-04-10T09:47:14;117.32;;;36.97;;
21848;SDS011;11089;49.852;19.700;2023-04-10T09:50:17;108.10;;;33.80;;
21848;SDS011;11089;49.852;19.700;2023-04-10T09:53:34;95.35;;;30.85;;
21848;SDS011;11089;49.852;19.700;2023-04-10T09:56:49;102.30;;;32.88;;
21848;SDS011;11089;49.852;19.700;2023-04-10T09:59:51;105.82;;;34.10;;
21848;SDS011;11089;49.852;19.700;2023-04-10T10:02:53;112.13;;;33.13;;
21848;SDS011;11089;49.852;19.700;2023-04-10T10:05:57;122.88;;;39.58;;
21848;SDS011;11089;49.852;19.700;2023-04-10T10:09:01;126.43;;;37.08;;
21848;SDS011;11089;49.852;19.700;2023-04-10T10:12:03;115.07;;;35.97;;
21848;SDS011;11089;49.852;19.700;2023-04-10T10:21:22;123.47;;;35.90;;
21848;SDS011;11089;49.852;19.700;2023-04-10T10:24:27;130.48;;;36.25;;
21848;SDS011;11089;49.852;19.700;2023-04-10T10:27:30;123.00;;;34.15;;
21848;SDS011;11089;49.852;19.700;2023-04-10T10:30:35;133.25;;;36.58;;
21848;SDS011;11089;49.852;19.700;2023-04-10T10:33:37;125.40;;;34.88;;
21848;SDS011;11089;49.852;19.700;2023-04-10T10:36:39;109.35;;;34.00;;
21848;SDS011;11089;49.852;19.700;2023-04-10T10:39:48;105.63;;;33.63;;
21848;SDS011;11089;49.852;19.700;2023-04-10T10:46:11;113.22;;;34.22;;
21848;SDS011;11089;49.852;19.700;2023-04-10T10:52:55;126.22;;;36.90;;
21848;SDS011;11089;49.852;19.700;2023-04-10T10:55:56;115.43;;;35.47;;
21848;SDS011;11089;49.852;19.700;2023-04-10T10:58:57;122.97;;;35.20;;
21848;SDS011;11089;49.852;19.700;2023-04-10T11:02:31;123.85;;;34.22;;
21848;SDS011;11089;49.852;19.700;2023-04-10T11:08:55;151.00;;;38.45;;
21848;SDS011;11089;49.852;19.700;2023-04-10T11:11:56;139.73;;;36.75;;
21848;SDS011;11089;49.852;19.700;2023-04-10T11:15:01;136.70;;;36.15;;
21848;SDS011;11089;49.852;19.700;2023-04-10T11:18:05;150.40;;;38.65;;
21848;SDS011;11089;49.852;19.700;2023-04-10T11:21:07;135.95;;;36.83;;
21848;SDS011;11089;49.852;19.700;2023-04-10T11:24:12;145.93;;;39.22;;
21848;SDS011;11089;49.852;19.700;2023-04-10T11:27:35;147.93;;;39.15;;
21848;SDS011;11089;49.852;19.700;2023-04-10T11:30:40;145.38;;;39.53;;
21848;SDS011;11089;49.852;19.700;2023-04-10T11:33:41;154.07;;;41.47;;
21848;SDS011;11089;49.852;19.700;2023-04-10T11:36:43;163.07;;;41.10;;
21848;SDS011;11089;49.852;19.700;2023-04-10T11:39:44;148.48;;;39.55;;
21848;SDS011;11089;49.852;19.700;2023-04-10T11:42:45;138.75;;;38.28;;
21848;SDS011;11089;49.852;19.700;2023-04-10T11:45:47;161.13;;;40.47;;
21848;SDS011;11089;49.852;19.700;2023-04-10T11:48:52;142.82;;;38.33;;
21848;SDS011;11089;49.852;19.700;2023-04-10T11:51:54;144.05;;;39.13;;
21848;SDS011;11089;49.852;19.700;2023-04-10T11:54:55;150.15;;;41.25;;
21848;SDS011;11089;49.852;19.700;2023-04-10T11:57:57;172.00;;;43.60;;
21848;SDS011;11089;49.852;19.700;2023-04-10T12:01:01;155.77;;;38.58;;
21848;SDS011;11089;49.852;19.700;2023-04-10T12:04:05;167.77;;;42.03;;
21848;SDS011;11089;49.852;19.700;2023-04-10T12:07:22;169.23;;;44.58;;
21848;SDS011;11089;49.852;19.700;2023-04-10T12:10:24;152.48;;;42.45;;
21848;SDS011;11089;49.852;19.700;2023-04-10T12:13:26;159.50;;;43.80;;
21848;SDS011;11089;49.852;19.700;2023-04-10T12:16:27;162.18;;;44.00;;
21848;SDS011;11089;49.852;19.700;2023-04-10T12:19:29;153.77;;;43.05;;
21848;SDS011;11089;49.852;19.700;2023-04-10T12:22:30;149.35;;;39.78;;
21848;SDS011;11089;49.852;19.700;2023-04-10T12:25:31;142.15;;;39.50;;
21848;SDS011;11089;49.852;19.700;2023-04-10T12:28:34;138.50;;;40.05;;
21848;SDS011;11089;49.852;19.700;2023-04-10T12:31:36;144.27;;;41.40;;
21848;SDS011;11089;49.852;19.700;2023-04-10T12:34:38;144.18;;;40.60;;
21848;SDS011;11089;49.852;19.700;2023-04-10T12:40:57;131.80;;;41.78;;
21848;SDS011;11089;49.852;19.700;2023-04-10T12:44:06;130.20;;;39.15;;
21848;SDS011;11089;49.852;19.700;2023-04-10T12:47:08;140.07;;;40.90;;
21848;SDS011;11089;49.852;19.700;2023-04-10T12:50:10;130.95;;;40.70;;
21848;SDS011;11089;49.852;19.700;2023-04-10T12:53:15;108.43;;;36.75;;
21848;SDS011;11089;49.852;19.700;2023-04-10T12:56:16;111.78;;;39.55;;
21848;SDS011;11089;49.852;19.700;2023-04-10T12:59:19;107.97;;;36.90;;
21848;SDS011;11089;49.852;19.700;2023-04-10T13:02:20;106.68;;;36.13;;
21848;SDS011;11089;49.852;19.700;2023-04-10T13:05:22;109.00;;;38.53;;
21848;SDS011;11089;49.852;19.700;2023-04-10T13:08:24;101.15;;;36.45;;
21848;SDS011;11089;49.852;19.700;2023-04-10T13:11:25;92.07;;;35.03;;
21848;SDS011;11089;49.852;19.700;2023-04-10T13:14:26;101.80;;;37.33;;
21848;SDS011;11089;49.852;19.700;2023-04-10T13:17:27;101.88;;;36.85;;
21848;SDS011;11089;49.852;19.700;2023-04-10T13:20:28;94.22;;;34.70;;
21848;SDS011;11089;49.852;19.700;2023-04-10T13:23:30;95.10;;;35.15;;
21848;SDS011;11089;49.852;19.700;2023-04-10T13:26:31;94.57;;;34.35;;
21848;SDS011;11089;49.852;19.700;2023-04-10T13:29:32;93.30;;;35.00;;
21848;SDS011;11089;49.852;19.700;2023-04-10T13:32:33;87.30;;;33.17;;
21848;SDS011;11089;49.852;19.700;2023-04-10T13:35:34;95.10;;;34.38;;
21848;SDS011;11089;49.852;19.700;2023-04-10T13:38:35;87.57;;;33.03;;
21848;SDS011;11089;49.852;19.700;2023-04-10T13:41:36;80.50;;;33.72;;
21848;SDS011;11089;49.852;19.700;2023-04-10T13:44:37;84.35;;;32.95;;
21848;SDS011;11089;49.852;19.700;2023-04-10T13:47:37;80.60;;;33.85;;
21848;SDS011;11089;49.852;19.700;2023-04-10T13:50:38;76.53;;;31.77;;
21848;SDS011;11089;49.852;19.700;2023-04-10T13:53:39;76.13;;;31.67;;
21848;SDS011;11089;49.852;19.700;2023-04-10T13:56:40;80.75;;;33.58;;
21848;SDS011;11089;49.852;19.700;2023-04-10T13:59:41;84.85;;;34.65;;
21848;SDS011;11089;49.852;19.700;2023-04-10T14:02:42;67.47;;;30.30;;
21848;SDS011;11089;49.852;19.700;2023-04-10T14:05:43;76.05;;;32.95;;
21848;SDS011;11089;49.852;19.700;2023-04-10T14:08:44;65.97;;;29.73;;
21848;SDS011;11089;49.852;19.700;2023-04-10T14:11:45;65.72;;;29.15;;
21848;SDS011;11089;49.852;19.700;2023-04-10T14:14:46;71.28;;;31.75;;
21848;SDS011;11089;49.852;19.700;2023-04-10T14:17:47;66.15;;;28.45;;
21848;SDS011;11089;49.852;19.700;2023-04-10T14:20:48;71.78;;;30.40;;
21848;SDS011;11089;49.852;19.700;2023-04-10T14:23:49;68.25;;;30.15;;
21848;SDS011;11089;49.852;19.700;2023-04-10T14:26:50;63.40;;;28.65;;
21848;SDS011;11089;49.852;19.700;2023-04-10T14:29:52;58.75;;;27.75;;
21848;SDS011;11089;49.852;19.700;2023-04-10T14:32:55;57.28;;;26.80;;
21848;SDS011;11089;49.852;19.700;2023-04-10T14:35:56;57.33;;;25.63;;
21848;SDS011;11089;49.852;19.700;2023-04-10T14:38:57;58.80;;;27.02;;
21848;SDS011;11089;49.852;19.700;2023-04-10T14:41:58;50.10;;;24.48;;
21848;SDS011;11089;49.852;19.700;2023-04-10T14:45:01;60.78;;;26.80;;
21848;SDS011;11089;49.852;19.700;2023-04-10T14:48:02;56.50;;;26.55;;
21848;SDS011;11089;49.852;19.700;2023-04-10T14:51:03;56.83;;;26.15;;
21848;SDS011;11089;49.852;19.700;2023-04-10T14:54:11;56.13;;;26.50;;
21848;SDS011;11089;49.852;19.700;2023-04-10T14:57:13;63.80;;;28.63;;
21848;SDS011;11089;49.852;19.700;2023-04-10T15:00:15;52.75;;;25.13;;
21848;SDS011;11089;49.852;19.700;2023-04-10T15:03:16;52.97;;;25.95;;
21848;SDS011;11089;49.852;19.700;2023-04-10T15:06:17;52.50;;;25.48;;
21848;SDS011;11089;49.852;19.700;2023-04-10T15:09:18;52.45;;;25.35;;
21848;SDS011;11089;49.852;19.700;2023-04-10T15:12:19;49.35;;;24.55;;
21848;SDS011;11089;49.852;19.700;2023-04-10T15:15:22;42.83;;;21.00;;
21848;SDS011;11089;49.852;19.700;2023-04-10T15:18:23;50.13;;;24.77;;
21848;SDS011;11089;49.852;19.700;2023-04-10T15:21:25;52.50;;;25.30;;
21848;SDS011;11089;49.852;19.700;2023-04-10T15:24:26;50.95;;;24.02;;
21848;SDS011;11089;49.852;19.700;2023-04-10T15:27:27;45.67;;;21.50;;
21848;SDS011;11089;49.852;19.700;2023-04-10T15:30:29;49.80;;;23.42;;
21848;SDS011;11089;49.852;19.700;2023-04-10T15:33:30;45.95;;;22.23;;
21848;SDS011;11089;49.852;19.700;2023-04-10T15:36:31;48.45;;;24.55;;
21848;SDS011;11089;49.852;19.700;2023-04-10T15:39:32;45.00;;;23.52;;
21848;SDS011;11089;49.852;19.700;2023-04-10T15:42:36;53.15;;;25.35;;
21848;SDS011;11089;49.852;19.700;2023-04-10T15:45:38;56.55;;;27.60;;
21848;SDS011;11089;49.852;19.700;2023-04-10T15:48:38;54.13;;;25.90;;
21848;SDS011;11089;49.852;19.700;2023-04-10T15:51:39;53.75;;;26.88;;
21848;SDS011;11089;49.852;19.700;2023-04-10T15:54:40;56.65;;;25.52;;
21848;SDS011;11089;49.852;19.700;2023-04-10T15:57:42;55.28;;;27.80;;
21848;SDS011;11089;49.852;19.700;2023-04-10T16:00:43;57.15;;;26.80;;
21848;SDS011;11089;49.852;19.700;2023-04-10T16:03:44;59.88;;;27.33;;
21848;SDS011;11089;49.852;19.700;2023-04-10T16:06:45;67.07;;;30.65;;
21848;SDS011;11089;49.852;19.700;2023-04-10T16:09:46;54.25;;;26.00;;
21848;SDS011;11089;49.852;19.700;2023-04-10T16:12:47;59.88;;;28.67;;
21848;SDS011;11089;49.852;19.700;2023-04-10T16:15:48;61.42;;;29.02;;
21848;SDS011;11089;49.852;19.700;2023-04-10T16:18:49;67.25;;;30.90;;
21848;SDS011;11089;49.852;19.700;2023-04-10T16:21:53;65.15;;;30.13;;
21848;SDS011;11089;49.852;19.700;2023-04-10T16:24:56;75.47;;;31.08;;
21848;SDS011;11089;49.852;19.700;2023-04-10T16:27:57;79.20;;;33.60;;
21848;SDS011;11089;49.852;19.700;2023-04-10T16:30:58;66.80;;;29.48;;
21848;SDS011;11089;49.852;19.700;2023-04-10T16:33:59;64.75;;;29.27;;
21848;SDS011;11089;49.852;19.700;2023-04-10T16:37:00;67.40;;;31.35;;
21848;SDS011;11089;49.852;19.700;2023-04-10T16:40:01;66.07;;;30.52;;
21848;SDS011;11089;49.852;19.700;2023-04-10T16:43:03;68.32;;;30.02;;
21848;SDS011;11089;49.852;19.700;2023-04-10T16:46:04;68.03;;;29.42;;
21848;SDS011;11089;49.852;19.700;2023-04-10T16:49:05;64.43;;;28.98;;
21848;SDS011;11089;49.852;19.700;2023-04-10T16:52:06;68.40;;;31.50;;
21848;SDS011;11089;49.852;19.700;2023-04-10T16:55:07;56.55;;;26.90;;
21848;SDS011;11089;49.852;19.700;2023-04-10T16:58:08;45.50;;;21.83;;
21848;SDS011;11089;49.852;19.700;2023-04-10T17:01:16;47.00;;;20.77;;
21848;SDS011;11089;49.852;19.700;2023-04-10T17:04:24;43.60;;;20.75;;
21848;SDS011;11089;49.852;19.700;2023-04-10T17:07:25;30.38;;;16.08;;
21848;SDS011;11089;49.852;19.700;2023-04-10T17:10:26;33.50;;;16.00;;
21848;SDS011;11089;49.852;19.700;2023-04-10T17:13:27;23.95;;;12.55;;
21848;SDS011;11089;49.852;19.700;2023-04-10T17:16:28;22.75;;;11.75;;
21848;SDS011;11089;49.852;19.700;2023-04-10T17:19:30;32.25;;;16.35;;
21848;SDS011;11089;49.852;19.700;2023-04-10T17:22:31;23.52;;;11.80;;
21848;SDS011;11089;49.852;19.700;2023-04-10T17:25:32;14.93;;;8.65;;
21848;SDS011;11089;49.852;19.700;2023-04-10T17:28:38;19.83;;;8.95;;
21848;SDS011;11089;49.852;19.700;2023-04-10T17:31:40;14.95;;;7.43;;
21848;SDS011;11089;49.852;19.700;2023-04-10T17:34:41;15.98;;;6.97;;
21848;SDS011;11089;49.852;19.700;2023-04-10T17:37:42;16.50;;;7.00;;
21848;SDS011;11089;49.852;19.700;2023-04-10T17:40:43;11.32;;;6.38;;
21848;SDS011;11089;49.852;19.700;2023-04-10T17:43:44;11.07;;;6.82;;
21848;SDS011;11089;49.852;19.700;2023-04-10T17:46:45;10.77;;;5.40;;
21848;SDS011;11089;49.852;19.700;2023-04-10T17:49:46;7.90;;;4.97;;
21848;SDS011;11089;49.852;19.700;2023-04-10T17:52:47;9.05;;;5.65;;
21848;SDS011;11089;49.852;19.700;2023-04-10T17:55:48;14.73;;;6.88;;
21848;SDS011;11089;49.852;19.700;2023-04-10T17:58:49;18.13;;;8.98;;
21848;SDS011;11089;49.852;19.700;2023-04-10T18:01:53;16.10;;;8.02;;
21848;SDS011;11089;49.852;19.700;2023-04-10T18:04:54;13.35;;;6.97;;